createdAt,value
2023-03-27T00:02:04.431Z,94302.70
2023-03-27T00:04:34.102Z,94344.61
2023-03-27T00:07:03.484Z,94309.13
2023-03-27T00:09:33.009Z,94297.77
2023-03-27T00:12:03.295Z,94323.13
2023-03-27T00:14:32.272Z,94333.34
2023-03-27T00:17:02.899Z,94312.06
2023-03-27T00:19:31.616Z,94308.46
2023-03-27T00:22:00.288Z,94319.45
2023-03-27T00:24:30.096Z,94330.23
2023-03-27T00:26:58.738Z,94333.76
2023-03-27T00:29:27.768Z,94308.01
2023-03-27T00:31:56.577Z,94313.02
2023-03-27T00:34:25.320Z,94312.56
2023-03-27T00:36:54.093Z,94292.34
2023-03-27T00:39:23.788Z,94283.84
2023-03-27T00:41:52.539Z,94310.39
2023-03-27T00:44:27.555Z,94298.98
2023-03-27T00:46:57.557Z,94280.80
2023-03-27T00:49:29.627Z,94289.91
2023-03-27T00:51:59.276Z,94292.16
2023-03-27T00:54:31.863Z,94258.04
2023-03-27T00:57:07.330Z,94271.09
2023-03-27T00:59:39.208Z,94282.03
2023-03-27T01:02:10.613Z,94262.69
2023-03-27T01:04:42.541Z,94280.89
2023-03-27T01:07:12.341Z,94255.70
2023-03-27T01:09:41.097Z,94256.11
2023-03-27T01:12:21.812Z,94249.09
2023-03-27T01:15:12.024Z,94216.31
2023-03-27T01:17:58.967Z,94241.33
2023-03-27T01:20:57.196Z,94244.33
2023-03-27T01:23:58.587Z,94226.88
2023-03-27T01:26:38.613Z,94238.07
2023-03-27T01:29:16.254Z,94230.34
2023-03-27T01:31:53.125Z,94225.20
2023-03-27T01:34:42.973Z,94225.04
2023-03-27T01:37:24.519Z,94237.58
2023-03-27T01:40:11.208Z,94230.23
2023-03-27T01:42:59.446Z,94236.11
2023-03-27T01:45:37.072Z,94215.41
2023-03-27T01:48:14.731Z,94211.63
2023-03-27T01:50:55.581Z,94222.97
2023-03-27T01:53:27.487Z,94187.50
2023-03-27T01:55:59.692Z,94207.78
2023-03-27T01:58:31.365Z,94210.70
2023-03-27T02:01:02.957Z,94196.11
2023-03-27T02:03:37.517Z,94195.19
2023-03-27T02:06:15.120Z,94187.63
2023-03-27T02:08:50.409Z,94210.16
2023-03-27T02:11:19.441Z,94199.89
2023-03-27T02:13:51.556Z,94204.98
2023-03-27T02:16:26.747Z,94198.41
2023-03-27T02:19:01.616Z,94178.69
2023-03-27T02:21:32.510Z,94196.11
2023-03-27T02:24:03.393Z,94183.38
2023-03-27T02:26:33.630Z,94166.48
2023-03-27T02:29:22.180Z,94161.90
2023-03-27T02:32:18.257Z,94159.25
2023-03-27T02:34:57.222Z,94162.56
2023-03-27T02:37:41.856Z,94164.45
2023-03-27T02:40:40.275Z,94141.50
2023-03-27T02:43:17.969Z,94144.67
2023-03-27T02:46:13.590Z,94138.92
2023-03-27T02:48:48.199Z,94115.20
2023-03-27T02:51:25.785Z,94111.41
2023-03-27T02:54:14.394Z,94103.47
2023-03-27T02:56:46.374Z,94111.19
2023-03-27T02:59:22.422Z,94098.66
2023-03-27T03:01:52.990Z,94085.13
2023-03-27T03:04:30.534Z,94099.93
2023-03-27T03:07:01.218Z,94111.48
2023-03-27T03:09:32.155Z,94101.45
2023-03-27T03:12:01.347Z,94102.55
2023-03-27T03:14:33.136Z,94076.61
2023-03-27T03:17:03.320Z,94055.98
2023-03-27T03:19:36.036Z,94074.45
2023-03-27T03:22:06.102Z,94077.66
2023-03-27T03:24:35.847Z,94067.02
2023-03-27T03:27:05.728Z,94054.91
2023-03-27T03:29:40.532Z,94045.00
2023-03-27T03:32:12.330Z,94044.28
2023-03-27T03:34:42.527Z,94053.56
2023-03-27T03:37:11.574Z,94055.42
2023-03-27T03:39:40.454Z,94047.20
2023-03-27T03:45:07.076Z,94038.67
2023-03-27T03:47:36.606Z,94037.25
2023-03-27T03:50:07.247Z,94047.70
2023-03-27T03:52:39.092Z,94031.59
2023-03-27T03:55:12.090Z,94061.93
2023-03-27T03:57:42.038Z,94037.50
2023-03-27T04:00:14.856Z,94042.05
2023-03-27T04:02:43.712Z,94049.05
2023-03-27T04:05:12.988Z,94056.59
2023-03-27T04:07:48.981Z,94028.16
2023-03-27T04:10:18.993Z,94037.84
2023-03-27T04:12:49.460Z,94037.62
2023-03-27T04:15:21.444Z,94049.36
2023-03-27T04:17:50.907Z,94039.78
2023-03-27T04:20:20.263Z,94043.94
2023-03-27T04:22:54.374Z,94044.92
2023-03-27T04:25:30.313Z,94026.05
2023-03-27T04:27:58.929Z,94029.86
2023-03-27T04:30:29.126Z,94044.61
2023-03-27T04:32:59.564Z,94039.36
2023-03-27T04:35:28.387Z,94037.34
2023-03-27T04:37:57.089Z,94043.63
2023-03-27T04:40:25.728Z,94029.23
2023-03-27T04:42:56.048Z,94025.80
2023-03-27T04:45:25.889Z,94014.08
2023-03-27T04:47:54.836Z,94044.42
2023-03-27T04:50:23.849Z,93997.05
2023-03-27T04:52:54.279Z,94036.69
2023-03-27T04:55:24.639Z,94010.52
2023-03-27T04:57:54.448Z,94028.55
2023-03-27T05:00:23.917Z,94032.90
2023-03-27T05:02:56.223Z,94002.20
2023-03-27T05:05:25.393Z,94018.14
2023-03-27T05:07:54.137Z,93994.23
2023-03-27T05:10:23.394Z,93990.14
2023-03-27T05:12:56.399Z,93999.73
2023-03-27T05:15:25.013Z,93975.56
2023-03-27T05:17:56.060Z,94004.05
2023-03-27T05:20:25.224Z,93991.71
2023-03-27T05:22:57.373Z,93968.16
2023-03-27T05:25:26.182Z,93988.91
2023-03-27T05:27:55.486Z,93930.80
2023-03-27T05:30:26.285Z,93959.62
2023-03-27T05:32:56.761Z,93938.57
2023-03-27T05:35:28.690Z,93923.72
2023-03-27T05:37:59.147Z,93928.89
2023-03-27T05:40:29.421Z,93921.13
2023-03-27T05:43:07.794Z,93912.55
2023-03-27T05:45:36.984Z,93877.02
2023-03-27T05:48:06.660Z,93877.86
2023-03-27T05:50:36.525Z,93880.68
2023-03-27T05:53:12.688Z,93839.42
2023-03-27T05:55:40.929Z,93843.82
2023-03-27T05:58:13.198Z,93837.88
2023-03-27T06:00:43.563Z,93811.40
2023-03-27T06:03:13.972Z,93812.53
2023-03-27T06:05:44.026Z,93803.25
2023-03-27T06:08:12.711Z,93778.81
2023-03-27T06:10:46.137Z,93770.40
2023-03-27T06:13:19.086Z,93762.50
2023-03-27T06:15:49.720Z,93764.53
2023-03-27T06:18:20.471Z,93744.76
2023-03-27T06:20:49.689Z,93766.50
2023-03-27T06:23:20.103Z,93772.75
2023-03-27T06:25:53.569Z,93755.84
2023-03-27T06:28:31.855Z,93738.95
2023-03-27T06:31:07.890Z,93749.02
2023-03-27T06:34:43.713Z,93757.70
2023-03-27T06:36:25.351Z,93759.66
2023-03-27T06:39:17.552Z,93770.14
2023-03-27T06:41:54.701Z,93786.66
2023-03-27T06:44:30.916Z,93769.88
2023-03-27T06:47:04.291Z,93781.23
2023-03-27T06:49:38.153Z,93770.32
2023-03-27T06:52:23.352Z,93779.05
2023-03-27T06:54:51.622Z,93782.34
2023-03-27T06:57:20.641Z,93778.69
2023-03-27T06:59:49.563Z,93776.25
2023-03-27T07:02:18.576Z,93782.41
2023-03-27T07:04:57.750Z,93786.95
2023-03-27T07:07:21.238Z,93787.73
2023-03-27T07:10:00.784Z,93775.28
2023-03-27T07:12:34.126Z,93785.95
2023-03-27T07:15:20.041Z,93776.69
2023-03-27T07:18:07.459Z,93771.48
2023-03-27T07:20:38.786Z,93784.80
2023-03-27T07:23:10.976Z,93771.44
2023-03-27T07:25:45.242Z,93764.97
2023-03-27T07:28:23.019Z,93765.34
2023-03-27T07:39:46.141Z,93785.88
2023-03-27T07:42:20.395Z,93731.23
2023-03-27T07:45:19.052Z,93777.81
2023-03-27T07:47:58.007Z,93768.31
2023-03-27T07:54:15.288Z,93766.27
2023-03-27T07:59:47.044Z,93770.97
2023-03-27T08:02:59.253Z,93771.68
2023-03-27T08:05:14.734Z,93762.29
2023-03-27T08:07:48.439Z,93752.98
2023-03-27T08:10:17.176Z,93740.23
2023-03-27T08:12:45.952Z,93738.50
2023-03-27T08:15:14.806Z,93739.25
2023-03-27T08:17:44.017Z,93732.69
2023-03-27T08:20:16.500Z,93711.41
2023-03-27T08:22:45.826Z,93735.65
2023-03-27T08:25:14.847Z,93722.23
2023-03-27T08:27:49.829Z,93709.62
2023-03-27T08:30:26.555Z,93715.96
2023-03-27T08:33:02.782Z,93706.89
2023-03-27T08:35:36.275Z,93703.89
2023-03-27T08:38:11.224Z,93714.70
2023-03-27T08:41:03.595Z,93708.66
2023-03-27T08:43:51.978Z,93710.84
2023-03-27T08:46:33.292Z,93719.97
2023-03-27T08:49:21.532Z,93736.31
2023-03-27T08:52:22.548Z,93743.13
2023-03-27T08:54:57.851Z,93768.53
2023-03-27T08:57:32.791Z,93748.37
2023-03-27T09:00:05.608Z,93714.94
2023-03-27T09:02:45.912Z,93693.28
2023-03-27T09:11:22.734Z,93655.42
2023-03-27T09:14:05.719Z,93639.82
2023-03-27T09:19:56.189Z,93668.28
2023-03-27T09:22:23.881Z,93671.83
2023-03-27T09:24:56.448Z,93672.88
2023-03-27T09:27:28.793Z,93689.69
2023-03-27T09:30:40.108Z,93709.59
2023-03-27T09:42:37.754Z,93709.25
2023-03-27T09:45:29.716Z,93701.50
2023-03-27T10:14:20.400Z,93627.67
2023-03-27T10:16:51.004Z,93692.78
2023-03-27T10:19:39.167Z,93685.38
2023-03-27T10:22:52.581Z,93714.47
2023-03-27T10:40:59.536Z,93683.77
2023-03-27T10:43:36.929Z,93674.00
2023-03-27T10:46:11.598Z,93667.71
2023-03-27T10:49:04.828Z,93659.38
2023-03-27T10:51:46.504Z,93640.98
2023-03-27T10:55:35.186Z,93622.45
2023-03-27T10:57:24.479Z,93614.76
2023-03-27T11:00:15.948Z,93593.08
2023-03-27T11:03:14.551Z,93581.03
2023-03-27T11:05:49.171Z,93596.05
2023-03-27T11:08:27.554Z,93603.78
2023-03-27T11:14:48.908Z,93605.37
2023-03-27T11:33:21.989Z,93683.42
2023-03-27T11:36:27.083Z,93684.67
2023-03-27T11:39:15.706Z,93693.67
2023-03-27T11:41:50.394Z,93700.48
2023-03-27T11:44:19.729Z,93695.62
2023-03-27T11:46:54.878Z,93684.53
2023-03-27T11:49:42.848Z,93709.14
2023-03-27T11:52:22.665Z,93708.34
2023-03-27T11:55:05.258Z,93702.83
2023-03-27T11:57:37.238Z,93733.53
2023-03-27T12:00:10.720Z,93751.48
2023-03-27T12:03:00.211Z,93767.94
2023-03-27T12:06:07.798Z,93772.25
2023-03-27T12:08:50.020Z,93784.38
2023-03-27T12:12:30.750Z,93802.23
2023-03-27T12:15:25.473Z,93823.48
2023-03-27T12:18:03.054Z,93842.55
2023-03-27T12:51:59.735Z,93812.84
2023-03-27T12:54:38.120Z,93808.08
2023-03-27T15:17:54.215Z,93641.72
2023-03-27T15:42:49.979Z,93654.67
2023-03-27T15:51:36.273Z,93656.03
2023-03-27T16:06:59.562Z,93683.09
2023-03-27T16:59:34.427Z,93700.92
2023-03-27T17:02:05.194Z,93703.98
2023-03-27T21:13:12.106Z,93997.09
2023-03-27T21:32:19.003Z,93990.23
2023-03-27T22:30:40.023Z,94039.99
2023-03-27T22:33:19.203Z,94059.38
2023-03-27T22:35:52.021Z,94075.95
2023-03-27T22:38:21.346Z,94046.61
2023-03-27T22:45:14.268Z,94078.94
2023-03-27T22:51:24.557Z,94116.66
2023-03-27T22:53:54.871Z,94116.66
2023-03-27T22:56:31.961Z,94124.69
2023-03-27T22:59:14.440Z,94148.60
2023-03-27T23:01:44.571Z,94147.03
2023-03-27T23:04:17.203Z,94150.09
2023-03-27T23:06:56.558Z,94150.09
2023-03-27T23:09:28.724Z,94168.14
2023-03-27T23:12:08.867Z,94165.04
2023-03-27T23:14:46.780Z,94177.50
2023-03-27T23:17:22.598Z,94174.69
2023-03-27T23:26:19.244Z,94206.64
2023-03-27T23:28:53.111Z,94203.66
2023-03-27T23:31:29.926Z,94215.63
2023-03-27T23:37:54.843Z,94228.17
2023-03-27T23:40:25.849Z,94238.97
2023-03-27T23:48:52.211Z,94238.97
2023-03-27T23:51:30.216Z,94238.97
2023-03-27T23:54:12.296Z,94234.19
